Time;durP1;ratioP1;P1;durP2;ratioP2;P2;SDS_P1;SDS_P2;PMS_P1;PMS_P2;Temp;Humidity;BMP_temperature;BMP_pressure;BME280_temperature;BME280_humidity;BME280_pressure;Samples;Min_cycle;Max_cycle;Signal;HPM_P1;HPM_P2
2023/01/23 00:01:33;;;;;;;14.63;9.27;;;1.30;99.90;;;4.91;56.84;98768.34;5031202;28;20045;-49
2023/01/23 00:04:04;;;;;;;18.20;9.20;;;1.30;99.90;;;4.92;56.57;98768.25;5030331;28;20045;-50
2023/01/23 00:06:32;;;;;;;15.40;8.50;;;1.30;99.90;;;4.92;56.27;98770.00;5030022;28;20053;-50
2023/01/23 00:09:00;;;;;;;14.20;8.97;;;1.30;99.90;;;4.88;56.17;98766.72;5030360;28;20037;-47
2023/01/23 00:11:29;;;;;;;16.63;9.00;;;1.30;99.90;;;4.79;56.65;98764.69;5030985;28;20049;-49
2023/01/23 00:13:59;;;;;;;14.73;8.93;;;1.30;99.90;;;4.78;56.56;98765.63;5031028;28;20300;-49
2023/01/23 00:16:30;;;;;;;15.80;8.60;;;1.30;99.90;;;4.77;56.58;98773.63;5031100;28;20049;-52
2023/01/23 00:18:58;;;;;;;14.47;8.33;;;1.20;99.90;;;4.77;57.07;98763.06;5031561;28;20045;-51
2023/01/23 00:21:27;;;;;;;14.50;8.00;;;1.30;99.90;;;4.79;56.79;98763.81;5029769;28;20389;-48
2023/01/23 00:23:57;;;;;;;14.33;8.60;;;1.30;99.90;;;4.76;56.47;98761.38;5039286;28;20501;-48
2023/01/23 00:26:28;;;;;;;13.97;8.73;;;1.20;99.90;;;4.77;57.07;98758.66;5031195;28;20390;-53
2023/01/23 00:28:56;;;;;;;14.43;8.20;;;1.20;99.90;;;4.79;56.44;98763.81;5022315;28;20049;-48
2023/01/23 00:31:41;;;;;;;13.80;8.80;;;1.10;99.90;;;4.75;56.30;98752.63;5029761;28;20076;-46
2023/01/23 00:34:13;;;;;;;14.33;8.30;;;1.20;99.90;;;4.76;56.20;98761.38;5024353;28;20061;-51
2023/01/23 00:36:43;;;;;;;13.90;8.93;;;1.20;99.90;;;4.75;57.22;98747.38;5029928;28;20407;-48
2023/01/23 00:39:19;;;;;;;11.97;8.57;;;1.20;99.90;;;4.75;56.47;98755.28;5031141;28;20046;-51
2023/01/23 00:41:48;;;;;;;15.00;8.27;;;1.20;99.90;;;4.78;56.41;98755.06;5029445;28;20045;-49
2023/01/23 00:44:16;;;;;;;13.50;8.90;;;1.20;99.90;;;4.81;56.35;98759.28;5029102;28;20681;-46
2023/01/23 00:46:44;;;;;;;13.93;7.93;;;1.20;99.90;;;4.80;56.33;98755.81;5031011;28;20060;-48
2023/01/23 00:49:11;;;;;;;14.70;8.50;;;1.30;99.90;;;4.78;56.12;98754.22;5029363;28;20232;-49
2023/01/23 00:51:39;;;;;;;13.80;7.60;;;1.20;99.90;;;4.75;56.64;98755.28;5029315;28;20045;-52
2023/01/23 00:54:07;;;;;;;14.20;8.10;;;1.20;99.90;;;4.77;56.57;98752.53;5030046;28;20057;-50
2023/01/23 00:56:34;;;;;;;13.57;8.80;;;1.20;99.90;;;4.79;56.27;98767.31;5031271;28;20046;-49
2023/01/23 00:59:02;;;;;;;15.47;8.60;;;1.20;99.90;;;4.81;56.15;98764.56;5030629;28;20072;-52
2023/01/23 01:01:31;;;;;;;14.87;8.83;;;1.20;99.90;;;4.81;56.53;98765.44;5028821;28;20049;-50
2023/01/23 01:03:59;;;;;;;14.63;8.13;;;1.20;99.90;;;4.81;56.32;98765.44;5029547;28;20041;-51
2023/01/23 01:06:29;;;;;;;14.97;8.37;;;1.20;99.90;;;4.81;56.70;98769.84;5029471;28;20053;-52
2023/01/23 01:08:58;;;;;;;14.90;8.67;;;1.20;99.90;;;4.77;56.37;98768.34;5029475;28;20056;-48
2023/01/23 01:11:26;;;;;;;15.00;9.27;;;1.20;99.90;;;4.74;56.67;98777.31;5028968;28;20056;-48
2023/01/23 01:13:54;;;;;;;14.43;8.47;;;1.20;99.90;;;4.71;56.12;98766.94;5029579;28;20056;-51
2023/01/23 01:16:23;;;;;;;13.80;8.20;;;1.10;99.90;;;4.63;56.19;98769.22;5029248;28;20053;-47
2023/01/23 01:18:50;;;;;;;15.87;8.63;;;1.00;99.90;;;4.64;56.84;98773.56;5030313;28;20033;-52
2023/01/23 01:21:19;;;;;;;14.70;8.50;;;1.00;99.90;;;4.66;56.41;98771.69;5030379;28;20393;-48
2023/01/23 01:23:47;;;;;;;14.87;9.73;;;1.10;99.90;;;4.67;56.65;98776.00;5029074;28;20053;-47
2023/01/23 01:26:14;;;;;;;21.63;12.47;;;1.20;99.90;;;4.68;56.73;98785.63;5029659;28;20055;-49
2023/01/23 01:28:42;;;;;;;24.70;14.07;;;1.20;99.90;;;4.70;56.98;98781.94;5030580;28;20045;-48
2023/01/23 01:31:15;;;;;;;13.53;8.87;;;1.20;99.90;;;4.75;56.62;98789.56;5030454;28;20053;-48
2023/01/23 01:33:43;;;;;;;14.63;8.83;;;1.20;99.90;;;4.71;56.43;98777.50;5029094;28;20539;-47
2023/01/23 01:36:17;;;;;;;17.33;9.00;;;1.10;99.90;;;4.67;56.74;98784.78;5013069;28;20049;-48
2023/01/23 01:38:47;;;;;;;13.93;8.73;;;1.10;99.90;;;4.69;56.78;98797.84;5030414;28;20038;-48
2023/01/23 01:41:16;;;;;;;12.83;8.23;;;1.10;99.90;;;4.73;57.11;98794.09;5028682;28;20045;-50
2023/01/23 01:43:44;;;;;;;12.30;8.03;;;1.20;99.90;;;4.72;56.99;98798.50;5027045;28;20109;-49
2023/01/23 01:46:27;;;;;;;13.43;8.13;;;1.20;99.90;;;4.76;56.95;98795.69;5030335;28;20729;-50
2023/01/23 01:49:09;;;;;;;15.80;8.00;;;1.30;99.90;;;4.79;56.52;98792.84;5032962;28;20061;-46
2023/01/23 01:52:04;;;;;;;12.73;8.35;;;1.30;99.90;;;4.79;56.50;98796.34;5016778;28;20049;-52
2023/01/23 01:54:37;;;;;;;14.10;9.47;;;1.30;99.90;;;4.84;56.40;98803.97;5033232;28;20053;-51
2023/01/23 01:57:20;;;;;;;12.20;8.32;;;1.30;99.90;;;4.88;56.51;98802.81;5034054;28;20050;-50
2023/01/23 02:00:09;;;;;;;13.63;7.77;;;1.30;99.90;;;4.92;56.30;98806.97;5032500;28;20409;-52
2023/01/23 02:03:00;;;;;;;15.43;8.90;;;1.30;99.90;;;4.94;56.44;98810.34;5032308;28;20057;-51
2023/01/23 02:05:36;;;;;;;14.90;8.43;;;1.30;99.90;;;4.96;56.67;98808.44;5032741;28;20505;-46
2023/01/23 02:08:29;;;;;;;12.73;8.03;;;1.30;99.90;;;4.91;56.33;98807.91;5025997;28;20065;-47
2023/01/23 02:10:59;;;;;;;13.27;8.03;;;1.30;99.90;;;4.94;55.98;98812.97;5032116;28;20064;-50
2023/01/23 02:13:38;;;;;;;13.23;7.80;;;1.30;99.90;;;4.95;55.82;98798.03;5033384;28;20054;-48
2023/01/23 02:16:10;;;;;;;13.33;6.97;;;1.40;99.90;;;4.96;56.23;98803.19;5025844;28;20512;-47
2023/01/23 02:18:43;;;;;;;11.10;6.90;;;1.40;99.90;;;4.95;56.82;98805.94;5032309;28;20046;-50
2023/01/23 02:21:12;;;;;;;10.70;6.87;;;1.40;99.90;;;4.97;56.31;98810.16;5032188;28;20045;-47
2023/01/23 02:23:52;;;;;;;12.00;7.53;;;1.40;99.90;;;5.00;55.74;98811.75;5032455;28;20293;-48
2023/01/23 02:26:35;;;;;;;12.33;7.43;;;1.40;99.90;;;5.01;56.20;98813.47;5032868;28;20057;-47
2023/01/23 02:29:04;;;;;;;12.50;6.73;;;1.40;99.90;;;5.05;56.61;98807.88;5026117;28;20061;-53
2023/01/23 02:31:43;;;;;;;11.00;6.80;;;1.40;99.90;;;5.08;55.69;98804.22;5032517;28;20049;-48
2023/01/23 02:34:13;;;;;;;12.23;7.47;;;1.40;99.90;;;5.07;56.11;98805.16;5033271;28;20054;-47
2023/01/23 02:36:46;;;;;;;10.40;6.03;;;1.50;99.90;;;5.05;56.02;98807.88;5032875;28;20037;-49
2023/01/23 02:39:19;;;;;;;13.67;7.70;;;1.40;99.90;;;5.06;56.52;98799.03;5015799;28;20508;-48
2023/01/23 02:41:54;;;;;;;12.97;6.57;;;1.50;99.90;;;5.05;56.32;98807.03;5031319;28;20516;-46
2023/01/23 02:44:31;;;;;;;11.40;6.47;;;1.50;99.90;;;5.04;56.10;98798.28;5032252;28;20042;-49
2023/01/23 02:47:11;;;;;;;11.53;6.97;;;1.50;99.90;;;5.04;56.28;98800.91;5031951;28;20402;-48
2023/01/23 02:49:41;;;;;;;13.17;6.83;;;1.50;99.90;;;5.06;55.68;98801.66;5031470;28;20049;-53
2023/01/23 02:52:09;;;;;;;10.37;6.40;;;1.50;99.90;;;5.05;56.26;98799.97;5031733;28;20045;-50
2023/01/23 02:54:39;;;;;;;10.93;7.03;;;1.50;99.90;;;5.07;55.80;98797.22;5032886;28;20034;-46
2023/01/23 02:57:07;;;;;;;11.80;6.77;;;1.50;99.90;;;5.05;55.90;98792.03;5031750;28;20053;-48
2023/01/23 03:02:23;;;;;;;12.37;6.33;;;1.50;99.90;;;5.01;55.59;98787.91;5031243;28;20047;-51
2023/01/23 03:04:51;;;;;;;12.20;7.43;;;1.40;99.90;;;4.99;55.79;98794.25;5031543;28;20046;-50
2023/01/23 03:07:19;;;;;;;13.60;6.70;;;1.40;99.90;;;4.96;56.23;98797.91;5032977;28;20041;-47
2023/01/23 03:09:47;;;;;;;11.87;6.50;;;1.40;99.90;;;4.97;56.37;98804.03;5031916;28;20041;-52
2023/01/23 03:12:15;;;;;;;11.17;6.77;;;1.40;99.90;;;4.95;56.58;98800.66;5031236;28;20042;-48
2023/01/23 03:14:43;;;;;;;9.97;6.17;;;1.40;99.90;;;4.97;56.72;98804.03;5032535;28;20052;-50
2023/01/23 03:17:13;;;;;;;12.50;6.27;;;1.50;99.90;;;5.01;56.11;98808.19;5031092;28;20068;-52
2023/01/23 03:19:42;;;;;;;12.37;7.87;;;1.40;99.90;;;5.03;55.96;98793.94;5047649;28;20045;-48
2023/01/23 03:22:09;;;;;;;11.60;6.83;;;1.50;99.90;;;5.03;56.09;98795.72;5030956;28;20041;-48
2023/01/23 03:24:39;;;;;;;11.80;7.17;;;1.50;99.90;;;5.03;56.61;98801.84;5031996;28;20056;-49
2023/01/23 03:27:07;;;;;;;13.23;7.97;;;1.50;99.90;;;5.02;55.88;98800.16;5032450;28;20038;-49
2023/01/23 03:32:29;;;;;;;11.40;7.27;;;1.40;99.90;;;4.98;56.04;98803.91;5030639;28;20045;-48
2023/01/23 03:34:58;;;;;;;12.37;7.93;;;1.40;99.90;;;5.01;55.95;98802.91;5030750;28;20053;-48
2023/01/23 03:37:26;;;;;;;13.90;7.67;;;1.40;99.90;;;4.99;56.24;98803.00;5031070;28;20412;-49
2023/01/23 03:42:41;;;;;;;13.57;8.20;;;1.40;99.90;;;5.00;55.56;98807.34;5031586;28;20409;-48
2023/01/23 03:45:12;;;;;;;10.70;6.73;;;1.40;99.90;;;5.02;56.09;98805.44;5029972;28;20507;-46
2023/01/23 03:47:41;;;;;;;11.87;7.30;;;1.50;99.90;;;5.05;55.89;98797.31;5030652;28;20049;-51
2023/01/23 03:50:09;;;;;;;12.87;7.37;;;1.50;99.90;;;5.05;55.77;98801.75;5030768;28;20052;-48
2023/01/23 03:52:39;;;;;;;13.17;7.13;;;1.50;99.90;;;5.04;56.01;98795.63;5030565;28;20049;-48
2023/01/23 03:55:07;;;;;;;14.73;7.53;;;1.50;99.90;;;5.05;55.86;98796.47;5030350;28;20045;-49
2023/01/23 03:57:36;;;;;;;13.33;7.73;;;1.40;99.90;;;5.05;56.20;98799.97;5030252;28;20057;-50
2023/01/23 04:00:16;;;;;;;13.87;7.43;;;1.40;99.90;;;5.05;56.11;98799.97;5026268;28;20042;-48
2023/01/23 04:02:52;;;;;;;14.17;8.37;;;1.40;99.90;;;5.05;55.43;98804.41;5030387;28;20041;-49
2023/01/23 04:05:20;;;;;;;14.20;8.97;;;1.40;99.90;;;5.05;55.34;98797.31;5013704;28;20193;-48
2023/01/23 04:07:48;;;;;;;17.00;8.50;;;1.30;99.90;;;5.04;55.57;98792.13;5030348;28;20531;-51
2023/01/23 04:10:16;;;;;;;14.83;8.47;;;1.30;99.90;;;5.05;55.81;98801.75;5031010;28;20037;-48
2023/01/23 04:12:49;;;;;;;13.23;8.23;;;1.30;99.90;;;5.01;56.02;98795.81;5030468;28;20045;-46
2023/01/23 04:15:18;;;;;;;14.37;8.13;;;1.30;99.90;;;5.00;56.21;98798.56;5030872;28;20053;-51
2023/01/23 04:17:46;;;;;;;14.17;8.07;;;1.30;99.90;;;4.97;56.16;98799.59;5013638;28;20049;-47
2023/01/23 04:20:14;;;;;;;19.30;9.73;;;1.30;99.90;;;4.98;55.39;98797.81;5029638;28;20053;-48
2023/01/23 04:22:43;;;;;;;14.60;8.77;;;1.30;99.90;;;4.99;56.32;98802.16;5030226;28;20048;-48
2023/01/23 04:25:11;;;;;;;12.87;7.80;;;1.30;99.90;;;4.99;56.21;98804.78;5029994;28;20046;-49
2023/01/23 04:27:39;;;;;;;14.83;9.00;;;1.30;99.90;;;5.01;56.16;98814.28;5030113;28;20053;-50
2023/01/23 04:30:09;;;;;;;14.90;8.57;;;1.40;99.90;;;5.01;56.08;98824.03;5030035;28;20054;-49
2023/01/23 04:32:37;;;;;;;15.43;8.23;;;1.40;99.90;;;5.01;55.88;98831.94;5030064;28;20045;-46
2023/01/23 04:35:06;;;;;;;15.20;9.27;;;1.40;99.90;;;5.02;55.40;98834.47;5030149;28;20053;-46
2023/01/23 04:37:37;;;;;;;13.77;7.80;;;1.30;99.90;;;5.02;55.62;98833.63;5030580;28;20056;-50
2023/01/23 04:40:09;;;;;;;16.23;9.73;;;1.30;99.90;;;5.02;55.71;98829.22;5013656;28;20038;-52
2023/01/23 04:42:48;;;;;;;14.83;8.07;;;1.40;99.90;;;5.04;56.09;98842.28;5029446;28;20509;-49
2023/01/23 04:45:33;;;;;;;;;;;1.30;99.90;;;4.96;55.87;98841.91;5029484;28;20049;-49
2023/01/23 04:48:32;;;;;;;13.47;7.53;;;1.30;99.90;;;5.01;55.57;98848.59;5031291;28;19921;-47
2023/01/23 04:51:00;;;;;;;14.43;7.97;;;1.20;99.90;;;5.00;55.71;98846.06;5029057;28;20053;-49
2023/01/23 04:53:28;;;;;;;14.97;8.60;;;1.30;99.90;;;5.01;55.54;98847.78;5031209;28;20069;-51
2023/01/23 04:56:00;;;;;;;13.13;7.73;;;1.30;99.90;;;4.99;56.18;98842.59;5029075;28;20064;-51
2023/01/23 04:58:28;;;;;;;19.97;8.63;;;1.30;99.90;;;5.00;56.26;98843.41;5029037;28;20416;-51
2023/01/23 05:01:05;;;;;;;16.50;9.13;;;1.30;99.90;;;4.98;55.91;98853.22;5029776;28;20046;-46
2023/01/23 05:03:36;;;;;;;16.40;8.73;;;1.30;99.90;;;4.99;56.23;98847.03;5031195;28;20519;-47
2023/01/23 05:06:04;;;;;;;14.20;8.37;;;1.30;99.90;;;4.98;55.64;98853.22;5029513;28;20048;-48
2023/01/23 05:08:32;;;;;;;14.50;8.07;;;1.30;99.90;;;4.99;55.39;98847.84;5029737;28;20413;-49
2023/01/23 05:11:16;;;;;;;18.58;8.98;;;1.30;99.90;;;5.01;55.96;98853.06;5022951;28;20109;-47
2023/01/23 05:13:44;;;;;;;15.73;8.13;;;1.30;99.90;;;4.98;55.23;98854.06;5029030;28;20056;-48
2023/01/23 05:16:13;;;;;;;15.40;7.90;;;1.30;99.90;;;4.97;56.05;98857.66;5029275;28;20056;-47
2023/01/23 05:18:59;;;;;;;15.23;8.83;;;1.30;99.90;;;4.98;55.85;98848.78;5030897;28;20053;-49
2023/01/23 05:21:31;;;;;;;16.43;9.17;;;1.30;99.90;;;5.01;55.59;98853.06;5031782;28;20045;-49
2023/01/23 05:23:59;;;;;;;13.93;8.20;;;1.30;99.90;;;5.01;56.10;98851.25;5032974;28;20189;-49
2023/01/23 05:26:27;;;;;;;15.53;9.07;;;1.30;99.90;;;4.99;56.11;98855.78;5033276;28;20056;-49
2023/01/23 05:28:56;;;;;;;15.93;8.57;;;1.30;99.90;;;4.97;55.49;98860.31;5032784;28;20512;-48
2023/01/23 05:31:25;;;;;;;16.83;8.97;;;1.40;99.90;;;4.95;55.39;98850.81;5032993;28;20093;-50
2023/01/23 05:34:13;;;;;;;17.43;9.47;;;1.40;99.90;;;4.92;56.46;98852.69;5026785;28;20052;-50
2023/01/23 05:36:41;;;;;;;17.97;9.43;;;1.40;99.90;;;4.92;56.33;98857.09;5032938;28;20056;-45
2023/01/23 05:39:09;;;;;;;15.60;9.07;;;1.40;99.90;;;4.90;55.75;98857.22;5032878;28;20048;-52
2023/01/23 05:41:37;;;;;;;12.47;7.47;;;1.40;99.90;;;4.89;56.09;98866.06;5032466;28;20065;-48
2023/01/23 05:44:30;;;;;;;16.13;9.40;;;1.40;99.90;;;4.87;55.37;98851.28;5033243;28;20049;-50
2023/01/23 05:47:05;;;;;;;19.50;9.97;;;1.40;99.90;;;4.85;55.80;98855.81;5033142;28;20053;-48
2023/01/23 05:49:33;;;;;;;20.03;10.20;;;1.30;99.90;;;4.83;55.80;98850.63;5032026;28;20049;-47
2023/01/23 05:52:01;;;;;;;14.90;8.60;;;1.30;99.90;;;4.83;56.30;98849.78;5032028;28;20042;-49
2023/01/23 05:54:31;;;;;;;22.80;11.23;;;1.30;99.90;;;4.82;56.25;98848.06;5032926;28;20152;-50
2023/01/23 05:57:00;;;;;;;19.10;11.17;;;1.30;99.90;;;4.79;56.05;98846.47;5033760;28;20405;-48
2023/01/23 05:59:46;;;;;;;20.43;11.10;;;1.30;99.90;;;4.75;56.05;98847.63;5034873;28;20060;-50
2023/01/23 06:02:37;;;;;;;16.33;10.63;;;1.30;99.90;;;4.76;55.90;98857.22;5034152;28;20072;-48
2023/01/23 06:05:25;;;;;;;21.90;11.07;;;1.20;99.90;;;4.78;55.70;98863.25;5040518;28;20045;-47
2023/01/23 06:08:00;;;;;;;22.73;11.93;;;1.20;99.90;;;4.75;56.35;98858.16;5033787;28;20037;-49
2023/01/23 06:10:29;;;;;;;22.67;12.30;;;1.30;99.90;;;4.72;56.03;98859.19;5040227;28;20053;-49
2023/01/23 06:12:57;;;;;;;23.17;11.93;;;1.30;99.90;;;4.65;56.16;98864.94;5040283;28;20057;-46
2023/01/23 06:15:25;;;;;;;26.70;13.80;;;1.10;99.90;;;4.63;55.80;98861.53;5040196;28;20532;-48
2023/01/23 06:17:54;;;;;;;30.63;15.17;;;1.10;99.90;;;4.60;55.92;98867.88;5040014;28;20065;-50
2023/01/23 06:20:24;;;;;;;21.40;11.67;;;1.20;99.90;;;4.61;56.75;98866.91;5039957;28;20398;-48
2023/01/23 06:22:52;;;;;;;27.40;13.63;;;1.20;99.90;;;4.64;56.60;98876.44;5039918;28;20045;-47
2023/01/23 06:25:21;;;;;;;25.70;13.33;;;1.20;99.90;;;4.67;55.85;98873.59;5031894;28;20045;-52
2023/01/23 06:27:49;;;;;;;28.27;14.90;;;1.20;99.90;;;4.68;56.00;98878.78;5031712;28;20050;-48
2023/01/23 06:30:17;;;;;;;27.07;12.00;;;1.20;99.90;;;4.71;56.28;98877.75;5031638;28;20050;-48
2023/01/23 06:32:47;;;;;;;25.17;13.70;;;1.20;99.90;;;4.69;56.62;98882.25;5039546;28;20056;-48
2023/01/23 06:35:19;;;;;;;25.43;12.80;;;1.30;99.90;;;4.72;55.93;98887.38;5032381;28;20045;-51
2023/01/23 06:37:47;;;;;;;25.47;13.00;;;1.20;99.90;;;4.73;56.12;98884.63;5031615;28;20072;-50
2023/01/23 06:40:18;;;;;;;25.70;12.90;;;1.20;99.90;;;4.74;55.70;98894.25;5031056;28;20064;-49
2023/01/23 06:42:57;;;;;;;23.00;12.67;;;1.20;99.90;;;4.72;55.57;98888.22;5031592;28;20048;-49
2023/01/23 06:45:26;;;;;;;24.50;13.70;;;1.20;99.90;;;4.71;55.73;98896.22;5033112;28;20038;-45
2023/01/23 06:47:53;;;;;;;24.67;12.53;;;1.30;99.90;;;4.72;55.91;98897.91;5040409;28;20053;-50
2023/01/23 06:50:22;;;;;;;22.87;11.50;;;1.30;99.90;;;4.71;56.06;98902.34;5030582;28;20052;-49
2023/01/23 06:52:50;;;;;;;20.13;12.00;;;1.20;99.90;;;4.71;56.03;98907.63;5030810;28;20504;-50
2023/01/23 06:55:20;;;;;;;24.10;12.80;;;1.20;99.90;;;4.74;55.83;98903.94;5031602;28;20049;-45
2023/01/23 06:57:48;;;;;;;23.07;11.90;;;1.20;99.90;;;4.76;56.21;98907.34;5039578;28;20136;-48
2023/01/23 07:00:17;;;;;;;23.57;13.20;;;1.20;99.90;;;4.80;56.03;98908.84;5031912;28;20497;-51
2023/01/23 07:02:45;;;;;;;21.90;12.50;;;1.20;99.90;;;4.82;56.31;98916.66;5039161;28;20046;-52
2023/01/23 07:05:14;;;;;;;21.40;12.40;;;1.20;99.90;;;4.74;55.87;98928.53;5030868;28;20042;-50
2023/01/23 07:07:45;;;;;;;19.73;10.13;;;1.10;99.90;;;4.74;56.04;98930.34;5031114;28;20037;-50
2023/01/23 07:10:13;;;;;;;15.37;9.00;;;1.10;99.90;;;4.76;55.97;98932.88;5032128;28;20041;-45
2023/01/23 07:12:41;;;;;;;20.17;10.90;;;1.20;99.90;;;4.78;55.54;98936.28;5030748;28;20042;-49
2023/01/23 07:15:10;;;;;;;21.43;10.73;;;1.20;99.90;;;4.81;55.52;98942.22;5032432;28;20052;-51
2023/01/23 07:17:40;;;;;;;16.80;9.40;;;1.20;99.90;;;4.84;56.02;98933.25;5039136;28;20046;-46
2023/01/23 07:20:09;;;;;;;18.33;10.00;;;1.20;99.90;;;4.84;55.49;98933.25;5030814;28;20049;-47
2023/01/23 07:22:42;;;;;;;;;;;1.30;99.90;;;4.77;56.03;98940.72;5031273;28;20045;-49
2023/01/23 07:25:09;;;;;;;18.40;10.20;;;1.30;99.90;;;4.88;55.47;98940.03;5032043;28;19928;-51
2023/01/23 07:27:37;;;;;;;22.50;10.20;;;1.30;99.90;;;4.88;55.67;98947.97;5032056;28;20052;-47
2023/01/23 07:30:06;;;;;;;19.03;10.37;;;1.30;99.90;;;4.89;55.76;98953.16;5030651;28;20473;-46
2023/01/23 07:32:34;;;;;;;19.00;10.20;;;1.30;99.90;;;4.90;55.90;98954.00;5031845;28;20512;-49
2023/01/23 07:35:02;;;;;;;17.50;9.47;;;1.30;99.90;;;4.89;55.83;98950.50;5032302;28;20046;-49
2023/01/23 07:37:29;;;;;;;18.87;10.13;;;1.40;99.90;;;4.89;55.33;98952.31;5031130;28;20041;-50
2023/01/23 07:39:57;;;;;;;20.93;11.50;;;1.40;99.90;;;4.87;55.71;98948.91;5031449;28;20038;-53
2023/01/23 07:42:25;;;;;;;18.87;11.33;;;1.40;99.90;;;4.88;55.41;98954.06;5030873;28;20041;-44
2023/01/23 07:44:53;;;;;;;17.17;10.80;;;1.40;99.90;;;4.93;55.94;98956.47;5028473;28;20048;-43
2023/01/23 07:47:20;;;;;;;18.63;10.70;;;1.40;99.90;;;4.97;55.50;98965.03;5032105;28;20048;-43
2023/01/23 07:49:48;;;;;;;20.43;11.13;;;1.40;99.90;;;4.99;55.85;98961.34;5031739;28;20049;-43
2023/01/23 07:52:16;;;;;;;19.53;11.87;;;1.40;99.90;;;5.00;55.16;98964.84;5031814;28;20109;-43
2023/01/23 07:54:44;;;;;;;19.30;10.80;;;1.40;99.90;;;5.01;55.37;98958.63;5032050;28;20045;-44
2023/01/23 07:57:12;;;;;;;21.40;11.43;;;1.40;99.90;;;4.99;55.84;98961.34;5031599;28;22093;-43
2023/01/23 07:59:39;;;;;;;19.60;10.00;;;1.50;99.90;;;4.99;56.34;98957.88;5031542;28;20045;-42
2023/01/23 08:02:09;;;;;;;17.77;10.10;;;1.50;99.90;;;5.01;55.50;98956.00;5031657;28;20044;-41
2023/01/23 08:04:37;;;;;;;18.83;10.37;;;1.50;99.90;;;5.01;55.86;98959.47;5031900;28;20041;-42
2023/01/23 08:07:05;;;;;;;18.43;10.17;;;1.50;99.90;;;5.00;55.25;98957.78;5031547;28;20038;-41
2023/01/23 08:09:33;;;;;;;19.17;11.47;;;1.50;99.90;;;5.00;55.87;98954.28;5031698;28;20373;-42
2023/01/23 08:12:01;;;;;;;22.07;11.93;;;1.50;99.90;;;5.03;55.33;98960.22;5038354;28;20076;-43
2023/01/23 08:14:28;;;;;;;25.50;12.17;;;1.50;99.90;;;5.03;55.87;98954.94;5031595;28;20057;-43
2023/01/23 08:16:56;;;;;;;20.07;11.00;;;1.50;99.90;;;5.04;56.23;98945.22;5031304;28;20489;-43
2023/01/23 08:19:26;;;;;;;20.10;11.23;;;1.50;99.90;;;5.08;55.37;98954.69;5031297;28;20516;-43
2023/01/23 08:21:53;;;;;;;18.83;11.90;;;1.50;99.90;;;5.09;55.93;98954.56;5031443;28;20041;-45
2023/01/23 08:24:21;;;;;;;18.43;10.63;;;1.60;99.90;;;5.12;55.19;98961.47;5031528;28;20044;-44
2023/01/23 08:26:49;;;;;;;23.47;12.50;;;1.60;99.90;;;5.15;55.33;98949.84;5031596;28;20049;-42
2023/01/23 08:29:17;;;;;;;20.37;12.40;;;1.60;99.90;;;5.16;55.52;98956.81;5031012;28;20037;-45
2023/01/23 08:31:44;;;;;;;27.33;14.90;;;1.60;99.90;;;5.18;55.56;98949.69;5031200;28;20045;-44
2023/01/23 08:34:12;;;;;;;30.70;16.47;;;1.60;99.90;;;5.20;55.68;98951.25;5031766;28;20041;-42
2023/01/23 08:36:40;;;;;;;25.73;14.03;;;1.60;99.90;;;5.21;55.00;98958.22;5031167;28;20052;-42
2023/01/23 08:39:08;;;;;;;22.37;12.80;;;1.60;99.90;;;5.23;54.95;98952.84;5031160;28;20041;-42
2023/01/23 08:41:36;;;;;;;22.73;12.90;;;1.70;99.90;;;5.20;55.43;98955.72;5029693;28;20045;-43
2023/01/23 08:44:04;;;;;;;23.47;13.07;;;1.70;99.90;;;5.23;55.96;98950.22;5030070;28;20385;-42
2023/01/23 08:46:31;;;;;;;22.90;12.33;;;1.70;99.90;;;5.27;55.84;98947.31;5029809;28;20496;-43
2023/01/23 08:48:59;;;;;;;25.93;12.87;;;1.80;99.90;;;5.33;55.23;98946.91;5030807;28;20059;-42
2023/01/23 08:51:27;;;;;;;19.27;11.83;;;1.80;99.90;;;5.37;55.69;98946.72;5030932;28;20421;-42
2023/01/23 08:53:55;;;;;;;21.67;10.57;;;1.80;99.90;;;5.39;55.02;98950.09;5031047;28;20424;-43
2023/01/23 08:56:23;;;;;;;20.00;10.53;;;1.80;99.90;;;5.41;55.24;98945.56;5034361;28;20048;-42
2023/01/23 08:58:51;;;;;;;17.80;11.00;;;1.80;99.90;;;5.45;55.10;98947.09;5035260;28;20041;-42
2023/01/23 09:01:22;;;;;;;18.93;11.23;;;1.80;99.90;;;5.44;54.39;98940.94;5034781;28;20037;-44
2023/01/23 09:04:04;;;;;;;19.00;11.10;;;1.80;99.90;;;5.38;55.10;98951.91;5034275;28;20045;-44
2023/01/23 09:06:31;;;;;;;21.37;11.03;;;1.80;99.90;;;5.42;54.64;98950.75;5033011;28;20049;-42
2023/01/23 09:08:59;;;;;;;21.00;10.63;;;1.80;99.90;;;5.43;54.39;98943.66;5033684;28;20053;-44
2023/01/23 09:11:27;;;;;;;15.17;9.77;;;1.80;99.90;;;5.42;54.47;98955.19;5034522;28;20046;-44
2023/01/23 09:13:55;;;;;;;19.87;10.20;;;1.90;99.90;;;5.39;54.76;98945.69;5034966;28;20045;-42
2023/01/23 09:16:23;;;;;;;19.30;11.60;;;1.90;99.90;;;5.44;54.46;98961.22;5024235;28;20261;-42
2023/01/23 09:18:50;;;;;;;20.60;11.57;;;1.90;99.90;;;5.48;54.96;98968.00;5031337;28;20088;-42
2023/01/23 09:21:18;;;;;;;20.33;11.73;;;1.90;99.90;;;5.51;54.45;98965.19;5034502;28;20029;-42
2023/01/23 09:23:46;;;;;;;18.90;9.70;;;2.00;99.90;;;5.55;54.36;98965.84;5034999;28;20037;-44
2023/01/23 09:26:14;;;;;;;18.37;10.07;;;2.00;99.90;;;5.60;54.83;98961.94;5034611;28;20056;-43
2023/01/23 09:28:43;;;;;;;20.30;11.50;;;2.10;99.90;;;5.63;54.00;98955.63;5034477;28;20493;-42
2023/01/23 09:31:12;;;;;;;22.07;12.70;;;2.10;99.90;;;5.65;54.55;98957.22;5034117;28;20046;-41
2023/01/23 09:33:41;;;;;;;22.10;12.70;;;2.20;99.90;;;5.65;54.22;98959.88;5024927;28;20052;-41
2023/01/23 09:36:09;;;;;;;22.33;12.67;;;2.20;99.90;;;5.65;54.65;98951.09;5034379;28;20528;-41
2023/01/23 09:38:37;;;;;;;19.83;11.63;;;2.20;99.90;;;5.66;54.11;98953.66;5034597;28;20045;-44
2023/01/23 09:41:27;;;;;;;20.10;12.30;;;2.20;99.90;;;5.67;54.17;98959.78;5032864;28;20037;-45
2023/01/23 09:44:06;;;;;;;19.00;11.13;;;2.20;99.90;;;5.76;53.98;98947.75;5033107;28;20037;-43
2023/01/23 09:46:56;;;;;;;20.17;10.23;;;2.10;99.90;;;5.79;53.94;98955.50;5026798;28;20042;-42
2023/01/23 09:49:59;;;;;;;20.50;10.10;;;2.20;99.90;;;5.87;53.99;98963.78;5032132;28;20038;-44
2023/01/23 09:52:44;;;;;;;16.73;10.73;;;2.30;99.90;;;5.85;53.80;98969.16;5030113;28;20052;-42
2023/01/23 09:55:32;;;;;;;36.10;14.93;;;2.30;99.90;;;5.89;53.90;98970.66;5033125;28;20532;-43
2023/01/23 09:58:02;;;;;;;40.53;18.53;;;2.30;99.90;;;5.94;53.25;98970.38;5032969;28;20053;-45
2023/01/23 10:00:32;;;;;;;53.37;20.70;;;2.30;99.90;;;5.92;54.08;98964.31;5032575;28;20056;-41
2023/01/23 10:03:10;;;;;;;34.50;14.83;;;2.30;99.90;;;5.85;53.31;98963.03;5033903;28;20096;-42
2023/01/23 10:05:59;;;;;;;31.83;14.63;;;2.30;99.90;;;5.80;53.97;98965.13;5032921;28;20042;-44
2023/01/23 10:08:45;;;;;;;23.23;13.07;;;2.30;99.90;;;5.78;53.60;98969.63;5024431;28;20044;-42
2023/01/23 10:11:25;;;;;;;21.87;11.87;;;2.30;99.90;;;5.78;53.65;98967.88;5033518;28;20041;-43
2023/01/23 10:14:28;;;;;;;30.80;13.83;;;2.30;99.90;;;5.75;54.09;98970.69;5033848;28;20083;-42
2023/01/23 10:17:09;;;;;;;28.00;14.37;;;2.30;99.90;;;5.83;54.25;98972.84;5028816;28;20046;-43
2023/01/23 10:20:31;;;;;;;22.63;11.53;;;2.30;99.90;;;5.73;54.03;98969.94;5026987;28;20049;-42
2023/01/23 10:23:29;;;;;;;30.37;14.83;;;2.40;99.90;;;5.76;54.45;98968.91;5029052;28;20049;-43
2023/01/23 10:26:01;;;;;;;29.03;14.00;;;2.30;99.90;;;5.78;53.68;98973.16;5029928;28;20056;-42
2023/01/23 10:28:38;;;;;;;32.40;16.73;;;2.40;99.90;;;5.81;53.80;98975.59;5025967;28;20052;-45
2023/01/23 10:31:43;;;;;;;30.67;14.80;;;2.40;99.90;;;5.82;53.68;98979.09;5033020;28;20053;-44
2023/01/23 10:34:24;;;;;;;36.75;17.10;;;2.30;99.90;;;5.94;53.82;98980.94;5032293;28;20045;-42
2023/01/23 10:37:36;;;;;;;35.23;16.83;;;2.40;99.90;;;6.04;53.62;98968.84;5032366;28;20045;-43
2023/01/23 10:41:12;;;;;;;25.10;13.50;;;2.40;99.90;;;6.04;53.52;98974.13;5017830;28;20058;-43
2023/01/23 10:43:18;;;;;;;27.70;14.33;;;2.50;99.90;;;6.09;54.10;98968.56;5031609;28;20116;-42
2023/01/23 10:45:48;;;;;;;27.03;13.37;;;2.50;99.90;;;6.11;53.30;98959.56;5029616;28;20489;-43
2023/01/23 10:48:31;;;;;;;24.77;13.03;;;2.50;99.90;;;6.12;53.93;98960.41;5033177;28;20045;-45
2023/01/23 10:50:59;;;;;;;25.30;12.93;;;2.60;99.90;;;6.18;53.13;98957.34;5032813;28;20053;-44
2023/01/23 10:53:27;;;;;;;36.33;17.87;;;2.60;99.90;;;6.24;53.20;98954.31;5033388;28;20045;-46